Time;durP1;ratioP1;P1;durP2;ratioP2;P2;SDS_P1;SDS_P2;PMS_P1;PMS_P2;Temp;Humidity;BMP_temperature;BMP_pressure;BME280_temperature;BME280_humidity;BME280_pressure;Samples;Min_cycle;Max_cycle;Signal;HPM_P1;HPM_P2
2021/03/29 00:02:08;;;;;;;7.40;2.83;;;9.40;81.00;;;;;;5003729;28;20129;-68
2021/03/29 00:04:34;;;;;;;10.18;3.35;;;9.30;81.40;;;;;;5008070;28;20030;-68
2021/03/29 00:07:01;;;;;;;11.65;3.50;;;9.30;81.40;;;;;;5007850;28;20044;-69
2021/03/29 00:09:29;;;;;;;11.00;3.20;;;9.30;81.40;;;;;;5006530;28;20037;-67
2021/03/29 00:11:57;;;;;;;12.63;3.70;;;9.40;81.10;;;;;;5002201;28;20564;-68
2021/03/29 00:14:24;;;;;;;14.20;3.25;;;9.40;81.20;;;;;;5005128;28;20028;-68
2021/03/29 00:16:52;;;;;;;13.55;3.28;;;9.40;81.00;;;;;;5007224;28;20552;-68
2021/03/29 00:19:18;;;;;;;9.40;3.55;;;9.40;80.90;;;;;;5003105;28;20152;-68
2021/03/29 00:21:44;;;;;;;13.32;3.47;;;9.50;80.80;;;;;;5004013;28;20469;-68
2021/03/29 00:24:10;;;;;;;8.50;2.90;;;9.40;80.90;;;;;;5000324;28;20034;-67
2021/03/29 00:26:37;;;;;;;14.38;3.53;;;9.50;80.60;;;;;;5005771;28;20022;-67
2021/03/29 00:29:03;;;;;;;19.33;3.58;;;9.50;80.60;;;;;;5005015;28;20048;-68
2021/03/29 00:31:30;;;;;;;11.40;3.90;;;9.50;80.20;;;;;;5009028;28;20049;-69
2021/03/29 00:33:56;;;;;;;11.25;3.47;;;9.50;80.20;;;;;;5005789;28;20041;-67
2021/03/29 00:36:24;;;;;;;12.70;3.78;;;9.50;80.10;;;;;;5008841;28;20089;-68
2021/03/29 00:38:52;;;;;;;14.20;3.75;;;9.60;80.20;;;;;;5007968;28;20109;-68
2021/03/29 00:41:19;;;;;;;9.50;3.47;;;9.50;80.40;;;;;;5003280;28;20021;-69
2021/03/29 00:43:47;;;;;;;9.07;3.30;;;9.50;80.50;;;;;;5005060;28;20022;-68
2021/03/29 00:46:14;;;;;;;12.75;3.47;;;9.40;80.40;;;;;;5007158;28;20022;-68
2021/03/29 00:48:42;;;;;;;9.18;3.53;;;9.50;80.20;;;;;;5005227;28;20033;-68
2021/03/29 00:51:10;;;;;;;9.23;3.03;;;9.50;80.40;;;;;;5005518;28;20087;-68
2021/03/29 00:53:38;;;;;;;10.32;3.42;;;9.50;80.20;;;;;;5000354;28;20030;-67
2021/03/29 00:56:04;;;;;;;12.23;3.22;;;9.50;80.00;;;;;;5006148;28;20025;-68
2021/03/29 00:58:31;;;;;;;11.88;3.22;;;9.50;80.10;;;;;;5006632;28;20030;-68
2021/03/29 01:01:04;;;;;;;10.07;3.65;;;9.50;80.30;;;;;;5008651;28;20034;-68
2021/03/29 01:03:32;;;;;;;11.85;3.35;;;9.50;80.20;;;;;;5010272;28;21023;-68
2021/03/29 01:06:11;;;;;;;17.33;4.18;;;9.40;80.50;;;;;;5005886;28;20065;-67
2021/03/29 01:08:54;;;;;;;9.98;3.63;;;9.30;80.60;;;;;;5012522;28;20026;-68
2021/03/29 01:11:29;;;;;;;10.45;3.67;;;9.40;80.30;;;;;;5015915;28;20094;-68
2021/03/29 01:14:06;;;;;;;9.57;3.45;;;9.40;80.20;;;;;;5028897;28;20542;-69
2021/03/29 01:17:02;;;;;;;9.93;3.42;;;9.40;80.40;;;;;;5012864;28;20026;-68
2021/03/29 01:20:01;;;;;;;7.20;3.05;;;9.40;80.30;;;;;;5006630;28;20030;-67
2021/03/29 01:22:45;;;;;;;10.77;3.72;;;9.30;80.50;;;;;;5000341;28;20041;-67
2021/03/29 01:25:26;;;;;;;10.18;3.92;;;9.40;80.20;;;;;;5004290;28;20033;-68
2021/03/29 01:27:59;;;;;;;13.05;3.88;;;9.40;80.10;;;;;;5012316;28;20021;-67
2021/03/29 01:30:30;;;;;;;10.02;3.53;;;9.50;79.80;;;;;;5012228;28;20030;-69
2021/03/29 01:32:57;;;;;;;9.55;3.78;;;9.50;80.00;;;;;;5010675;28;20045;-67
2021/03/29 01:35:33;;;;;;;11.88;3.45;;;9.40;80.10;;;;;;5008176;28;20441;-68
2021/03/29 01:38:00;;;;;;;10.38;3.90;;;9.50;80.00;;;;;;5017826;28;20120;-68
2021/03/29 01:40:26;;;;;;;8.77;3.58;;;9.50;79.90;;;;;;5014174;28;20029;-69
2021/03/29 01:42:53;;;;;;;9.90;3.63;;;9.50;79.80;;;;;;5010512;28;20025;-68
2021/03/29 01:45:21;;;;;;;10.88;3.88;;;9.50;79.60;;;;;;5017406;28;20027;-68
2021/03/29 01:47:47;;;;;;;7.72;3.40;;;9.50;79.80;;;;;;5013601;28;20052;-68
2021/03/29 01:50:17;;;;;;;15.57;3.60;;;9.50;79.70;;;;;;5007671;28;20030;-68
2021/03/29 01:52:42;;;;;;;12.48;3.72;;;9.50;79.70;;;;;;5008727;28;20022;-68
2021/03/29 01:55:09;;;;;;;7.57;3.65;;;9.60;79.40;;;;;;5012330;28;20030;-68
2021/03/29 01:57:35;;;;;;;9.90;3.83;;;9.60;79.50;;;;;;5011607;28;20026;-68
2021/03/29 02:00:07;;;;;;;14.02;3.80;;;9.50;79.60;;;;;;5008495;28;20037;-68
2021/03/29 02:02:33;;;;;;;9.48;4.00;;;9.50;79.50;;;;;;5008840;28;20030;-68
2021/03/29 02:04:58;;;;;;;11.90;3.97;;;9.50;79.50;;;;;;5010019;28;20033;-68
2021/03/29 02:07:26;;;;;;;11.68;4.30;;;9.50;79.80;;;;;;5010746;28;20514;-68
2021/03/29 02:09:52;;;;;;;10.73;3.50;;;9.50;79.70;;;;;;5009701;28;20184;-68
2021/03/29 02:12:18;;;;;;;8.32;3.65;;;9.50;79.60;;;;;;5013331;28;20251;-69
2021/03/29 02:14:45;;;;;;;11.38;3.90;;;9.60;79.20;;;;;;5009923;28;20237;-67
2021/03/29 02:17:12;;;;;;;9.90;4.20;;;9.60;79.40;;;;;;5010908;28;20459;-68
2021/03/29 02:19:38;;;;;;;12.27;4.03;;;9.50;79.40;;;;;;5008263;28;20042;-67
2021/03/29 02:22:04;;;;;;;9.93;3.47;;;9.50;79.10;;;;;;5007049;28;20037;-67
2021/03/29 02:24:31;;;;;;;12.18;3.83;;;9.60;79.10;;;;;;5008105;28;20034;-68
2021/03/29 02:26:58;;;;;;;11.32;4.13;;;9.50;79.20;;;;;;5014895;28;20022;-68
2021/03/29 02:29:28;;;;;;;7.38;3.65;;;9.60;78.90;;;;;;5008735;28;20026;-67
2021/03/29 02:31:58;;;;;;;10.68;4.15;;;9.60;78.60;;;;;;5010220;28;20033;-67
2021/03/29 02:34:24;;;;;;;8.05;3.60;;;9.50;79.10;;;;;;5009635;28;20068;-67
2021/03/29 02:36:52;;;;;;;11.30;3.40;;;9.50;79.00;;;;;;5009305;28;20049;-67
2021/03/29 02:39:19;;;;;;;10.68;3.97;;;9.50;78.70;;;;;;5008392;28;20681;-67
2021/03/29 02:41:46;;;;;;;11.55;3.58;;;9.50;79.00;;;;;;5010452;28;20441;-68
2021/03/29 02:44:12;;;;;;;10.95;3.50;;;9.50;79.10;;;;;;5008654;28;20026;-68
2021/03/29 02:46:38;;;;;;;10.90;3.53;;;9.40;79.30;;;;;;5012390;28;20109;-67
2021/03/29 02:49:05;;;;;;;11.88;3.92;;;9.40;78.80;;;;;;5004166;28;20113;-68
2021/03/29 02:51:35;;;;;;;9.80;3.55;;;9.40;78.90;;;;;;5010821;28;20029;-68
2021/03/29 02:54:05;;;;;;;12.98;3.97;;;9.50;78.40;;;;;;5016067;28;20025;-68
2021/03/29 02:56:35;;;;;;;13.45;3.97;;;9.40;78.80;;;;;;5009797;28;20062;-67
2021/03/29 02:59:06;;;;;;;9.60;3.72;;;9.50;78.60;;;;;;5014747;28;20021;-68
2021/03/29 03:01:34;;;;;;;10.63;3.50;;;9.50;78.60;;;;;;5009451;28;20037;-67
2021/03/29 03:04:00;;;;;;;12.43;4.20;;;9.60;78.10;;;;;;5009049;28;20022;-67
2021/03/29 03:06:29;;;;;;;15.02;3.97;;;9.60;78.10;;;;;;5009813;28;20026;-67
2021/03/29 03:08:55;;;;;;;9.93;3.47;;;9.60;78.20;;;;;;5006052;28;20033;-68
2021/03/29 03:11:22;;;;;;;10.18;2.90;;;9.60;77.60;;;;;;5017613;28;20089;-69
2021/03/29 03:13:49;;;;;;;9.88;3.42;;;9.60;77.50;;;;;;5012336;28;20511;-69
2021/03/29 03:16:15;;;;;;;6.45;2.92;;;9.60;77.40;;;;;;5007101;28;20029;-68
2021/03/29 03:18:41;;;;;;;10.55;3.20;;;9.70;77.00;;;;;;5007176;28;20029;-69
2021/03/29 03:21:08;;;;;;;9.60;3.30;;;9.70;77.20;;;;;;5007524;28;20094;-68
2021/03/29 03:23:34;;;;;;;9.32;3.47;;;9.70;77.20;;;;;;5009338;28;20037;-69
2021/03/29 03:26:00;;;;;;;10.40;3.67;;;9.60;77.40;;;;;;5011017;28;20050;-68
2021/03/29 03:28:28;;;;;;;11.98;3.78;;;9.70;76.60;;;;;;5007476;28;20026;-68
2021/03/29 03:30:56;;;;;;;9.35;3.28;;;9.80;76.40;;;;;;5004571;28;20036;-67
2021/03/29 03:33:26;;;;;;;8.55;3.22;;;9.80;76.20;;;;;;5008691;28;20049;-68
2021/03/29 03:35:53;;;;;;;14.82;3.92;;;9.70;76.70;;;;;;5010127;28;20034;-68
2021/03/29 03:38:28;;;;;;;9.45;3.30;;;9.70;76.50;;;;;;5007883;28;20017;-68
2021/03/29 03:41:20;;;;;;;11.57;3.08;;;9.70;76.00;;;;;;5010304;28;20522;-68
2021/03/29 03:43:51;;;;;;;14.05;3.10;;;9.70;76.10;;;;;;5006989;28;20116;-69
2021/03/29 03:46:31;;;;;;;9.43;3.03;;;9.70;76.00;;;;;;5006261;28;20530;-69
2021/03/29 03:49:02;;;;;;;10.18;3.40;;;9.60;76.30;;;;;;5007482;28;20030;-68
2021/03/29 03:51:29;;;;;;;10.55;3.00;;;9.60;76.10;;;;;;5003550;28;20101;-69
2021/03/29 03:53:54;;;;;;;9.88;3.35;;;9.70;75.60;;;;;;5009858;28;20510;-68
2021/03/29 03:56:21;;;;;;;8.75;3.03;;;9.70;75.60;;;;;;5009208;28;20026;-68
2021/03/29 03:58:48;;;;;;;13.20;3.47;;;9.70;75.30;;;;;;5007490;28;20037;-69
2021/03/29 04:01:15;;;;;;;7.95;2.90;;;9.70;75.30;;;;;;5009086;28;20028;-68
2021/03/29 04:03:40;;;;;;;10.40;3.00;;;9.70;75.50;;;;;;5009297;28;20076;-68
2021/03/29 04:06:06;;;;;;;8.23;3.00;;;9.70;75.30;;;;;;5007778;28;20406;-66
2021/03/29 04:08:32;;;;;;;9.65;3.50;;;9.80;75.10;;;;;;5007973;28;20393;-67
2021/03/29 04:10:59;;;;;;;10.15;3.17;;;9.70;74.80;;;;;;5007498;28;20037;-68
2021/03/29 04:13:29;;;;;;;9.05;3.05;;;9.80;74.50;;;;;;5010211;28;20368;-67
2021/03/29 04:16:05;;;;;;;14.02;3.20;;;9.80;74.50;;;;;;5005835;28;20033;-67
2021/03/29 04:18:32;;;;;;;10.73;3.17;;;9.80;74.60;;;;;;5004098;28;20092;-68
2021/03/29 04:20:59;;;;;;;8.02;2.65;;;9.80;74.60;;;;;;5009557;28;20037;-67
2021/03/29 04:23:26;;;;;;;6.60;2.67;;;9.80;74.60;;;;;;5005658;28;20030;-67
2021/03/29 04:25:52;;;;;;;9.27;3.20;;;9.80;74.30;;;;;;5013084;28;20486;-66
2021/03/29 04:28:18;;;;;;;8.27;2.97;;;9.80;74.10;;;;;;5007841;28;20053;-68
2021/03/29 04:30:44;;;;;;;10.25;2.53;;;9.70;75.80;;;;;;5005288;28;20119;-67
2021/03/29 04:33:09;;;;;;;12.45;3.10;;;9.70;76.10;;;;;;5006635;28;20392;-67
2021/03/29 04:35:35;;;;;;;7.60;3.20;;;9.60;76.80;;;;;;5011575;28;20029;-67
2021/03/29 04:38:01;;;;;;;9.38;2.45;;;9.60;76.80;;;;;;5020275;28;20030;-67
2021/03/29 04:40:27;;;;;;;7.65;2.20;;;9.40;77.80;;;;;;5009096;28;20513;-67
2021/03/29 04:42:54;;;;;;;10.82;2.95;;;9.30;78.70;;;;;;5011388;28;20053;-68
2021/03/29 04:45:21;;;;;;;9.50;3.03;;;9.30;78.60;;;;;;5007988;28;20030;-67
2021/03/29 04:47:47;;;;;;;9.88;3.33;;;9.30;78.30;;;;;;5013014;28;20030;-66
2021/03/29 04:50:15;;;;;;;12.43;3.10;;;9.30;78.50;;;;;;5010590;28;20030;-67
2021/03/29 04:52:41;;;;;;;14.57;3.20;;;9.40;78.10;;;;;;5007577;28;20041;-67
2021/03/29 04:55:08;;;;;;;11.25;2.83;;;9.30;78.70;;;;;;5008253;28;20022;-67
2021/03/29 04:57:37;;;;;;;7.90;2.70;;;9.30;77.70;;;;;;5012814;28;20271;-67
2021/03/29 05:00:05;;;;;;;9.50;3.47;;;9.40;78.00;;;;;;5004898;28;20520;-66
2021/03/29 05:02:30;;;;;;;7.95;3.15;;;9.40;77.50;;;;;;5010935;28;20191;-67
2021/03/29 05:04:56;;;;;;;10.15;2.88;;;9.50;77.10;;;;;;5010145;28;20079;-67
2021/03/29 05:07:22;;;;;;;10.93;3.28;;;9.60;76.80;;;;;;5011060;28;20038;-67
2021/03/29 05:09:48;;;;;;;12.95;3.50;;;9.50;77.20;;;;;;5009268;28;20030;-67
2021/03/29 05:12:22;;;;;;;11.70;3.03;;;9.50;76.60;;;;;;5008927;28;20022;-66
2021/03/29 05:14:49;;;;;;;7.70;2.45;;;9.60;76.80;;;;;;5006034;28;20021;-67
2021/03/29 05:17:14;;;;;;;12.00;2.83;;;9.60;76.40;;;;;;5005000;28;20099;-67
2021/03/29 05:19:40;;;;;;;9.10;2.58;;;9.70;76.30;;;;;;5007922;28;20892;-67
2021/03/29 05:22:07;;;;;;;7.50;3.22;;;9.80;75.40;;;;;;5020399;28;20060;-67
2021/03/29 05:24:33;;;;;;;10.05;2.95;;;9.80;75.70;;;;;;5005867;28;20080;-68
2021/03/29 05:26:59;;;;;;;11.18;3.25;;;9.80;75.40;;;;;;5010632;28;20479;-67
2021/03/29 05:29:28;;;;;;;7.88;2.85;;;9.80;75.50;;;;;;5016527;28;20147;-68
2021/03/29 05:31:57;;;;;;;7.20;2.78;;;9.90;75.20;;;;;;5014221;28;20030;-67
2021/03/29 05:34:24;;;;;;;10.35;2.90;;;9.80;75.90;;;;;;5009826;28;20022;-65
2021/03/29 05:36:50;;;;;;;7.57;2.78;;;9.80;75.50;;;;;;5006427;28;20060;-67
2021/03/29 05:39:15;;;;;;;11.40;3.15;;;9.90;75.50;;;;;;5003828;28;20472;-68
2021/03/29 05:41:42;;;;;;;11.43;2.97;;;9.90;75.20;;;;;;5007142;28;20038;-67
2021/03/29 05:44:09;;;;;;;7.90;2.88;;;10.00;75.00;;;;;;5006309;28;20072;-67
2021/03/29 05:46:40;;;;;;;10.38;3.35;;;10.00;74.90;;;;;;5006564;28;20025;-67
2021/03/29 05:49:06;;;;;;;;;;;10.00;74.90;;;;;;5006738;28;20037;-67
2021/03/29 05:51:39;;;;;;;11.27;2.78;;;10.00;75.20;;;;;;5010674;28;19911;-67
2021/03/29 05:54:06;;;;;;;9.38;3.00;;;10.00;75.40;;;;;;5005365;28;20084;-67
2021/03/29 05:56:37;;;;;;;10.00;3.05;;;10.10;74.50;;;;;;4996209;28;20216;-66
2021/03/29 05:59:27;;;;;;;11.57;3.30;;;10.10;74.60;;;;;;4988108;28;20113;-67
2021/03/29 06:01:54;;;;;;;13.23;2.92;;;10.10;75.10;;;;;;4987488;28;20517;-67
2021/03/29 06:04:48;;;;;;;7.18;3.00;;;10.10;74.90;;;;;;4990623;28;20552;-67
2021/03/29 06:07:16;;;;;;;8.18;2.70;;;10.10;75.00;;;;;;4989208;28;20044;-67
2021/03/29 06:09:43;;;;;;;8.00;2.90;;;10.10;75.20;;;;;;4989463;28;22026;-67
2021/03/29 06:12:10;;;;;;;7.50;3.75;;;10.20;74.60;;;;;;4989273;28;20022;-67
2021/03/29 06:14:36;;;;;;;10.90;3.53;;;10.20;74.90;;;;;;4988454;28;20034;-67
2021/03/29 06:17:10;;;;;;;11.85;2.85;;;10.10;75.10;;;;;;4985778;28;20085;-67
2021/03/29 06:19:49;;;;;;;13.85;3.20;;;10.20;74.60;;;;;;4988350;28;20034;-67
2021/03/29 06:22:40;;;;;;;10.52;3.63;;;10.20;74.30;;;;;;4984264;28;20101;-66
2021/03/29 06:25:15;;;;;;;13.82;3.60;;;10.20;74.40;;;;;;4988961;28;20386;-67
2021/03/29 06:27:55;;;;;;;11.07;3.17;;;10.30;74.10;;;;;;4987035;28;20062;-67
2021/03/29 06:30:27;;;;;;;11.77;2.92;;;10.40;73.90;;;;;;5004938;28;20030;-68
2021/03/29 06:32:57;;;;;;;10.52;3.25;;;10.40;74.10;;;;;;5007563;28;20026;-67
2021/03/29 06:35:30;;;;;;;7.32;2.83;;;10.40;73.70;;;;;;5012116;28;20022;-67
2021/03/29 06:38:17;;;;;;;11.35;3.20;;;10.50;73.80;;;;;;5007923;28;20030;-67
2021/03/29 06:41:03;;;;;;;11.30;3.60;;;10.50;74.00;;;;;;5007416;28;20045;-67
2021/03/29 06:43:29;;;;;;;11.27;3.17;;;10.60;73.90;;;;;;5004254;28;20029;-68
2021/03/29 06:45:58;;;;;;;8.93;3.72;;;10.60;73.20;;;;;;5006195;28;20030;-66
2021/03/29 06:48:35;;;;;;;12.65;3.20;;;10.70;73.60;;;;;;5007193;28;20305;-67
2021/03/29 06:51:09;;;;;;;8.25;3.33;;;10.80;73.10;;;;;;5001753;28;20053;-68
2021/03/29 06:53:36;;;;;;;13.13;3.50;;;10.90;73.10;;;;;;5002311;28;20030;-66
2021/03/29 06:56:18;;;;;;;8.55;3.15;;;11.00;72.30;;;;;;5000537;28;21735;-67
2021/03/29 06:58:44;;;;;;;12.68;3.53;;;11.00;72.70;;;;;;5012485;28;20037;-67
2021/03/29 07:01:16;;;;;;;13.40;3.22;;;11.00;72.20;;;;;;5000938;28;20267;-67
2021/03/29 07:03:43;;;;;;;8.35;2.97;;;11.10;72.10;;;;;;4994620;28;20045;-67
2021/03/29 07:06:09;;;;;;;10.70;3.38;;;11.10;72.30;;;;;;4998326;28;20038;-68
2021/03/29 07:08:36;;;;;;;9.93;3.40;;;11.10;71.70;;;;;;5008034;28;20030;-68
2021/03/29 07:11:01;;;;;;;8.77;3.42;;;11.10;71.60;;;;;;5011674;28;20038;-67
2021/03/29 07:13:29;;;;;;;9.40;3.47;;;11.20;72.20;;;;;;5007142;28;20084;-67
2021/03/29 07:16:00;;;;;;;10.50;3.08;;;11.10;72.00;;;;;;5000659;28;20029;-67
2021/03/29 07:18:27;;;;;;;;;;;11.10;72.60;;;;;;5003888;28;20022;-68
2021/03/29 07:20:54;;;;;;;15.23;3.25;;;11.10;72.50;;;;;;5001722;28;19962;-67
2021/03/29 07:23:20;;;;;;;13.35;3.67;;;11.10;72.70;;;;;;5001400;28;20042;-68
2021/03/29 07:25:46;;;;;;;11.40;3.33;;;11.10;72.10;;;;;;5001382;28;20434;-67
2021/03/29 07:28:12;;;;;;;7.85;2.50;;;11.10;73.50;;;;;;5005959;28;20030;-67
2021/03/29 07:30:47;;;;;;;10.30;2.97;;;11.00;73.00;;;;;;5006729;28;20232;-67
2021/03/29 07:33:14;;;;;;;8.20;3.15;;;11.10;73.00;;;;;;5005325;28;20026;-67
2021/03/29 07:35:51;;;;;;;9.27;3.10;;;11.10;73.30;;;;;;5005552;28;20034;-67
2021/03/29 07:38:18;;;;;;;9.05;3.25;;;11.20;72.20;;;;;;5005477;28;20045;-67
2021/03/29 07:40:47;;;;;;;8.30;3.13;;;11.30;71.90;;;;;;5002502;28;20029;-67
2021/03/29 07:43:16;;;;;;;10.10;2.88;;;11.40;72.30;;;;;;5002860;28;20030;-67
2021/03/29 07:45:48;;;;;;;17.60;3.35;;;11.50;71.10;;;;;;5008165;28;20092;-67
2021/03/29 07:48:36;;;;;;;12.20;3.22;;;11.70;71.80;;;;;;4993955;28;20022;-66
2021/03/29 07:51:08;;;;;;;6.05;2.97;;;11.60;71.10;;;;;;5003360;28;20045;-66
2021/03/29 07:53:42;;;;;;;10.02;3.38;;;11.70;71.40;;;;;;5000113;28;20076;-67
2021/03/29 07:56:08;;;;;;;8.10;2.80;;;11.70;71.70;;;;;;5001918;28;20407;-67
2021/03/29 07:58:44;;;;;;;13.05;3.03;;;11.60;70.90;;;;;;5004235;28;20013;-67
2021/03/29 08:01:11;;;;;;;13.18;3.38;;;11.70;71.30;;;;;;5005531;28;20125;-66
2021/03/29 08:03:41;;;;;;;9.00;3.08;;;11.70;70.80;;;;;;5009178;28;20031;-66
2021/03/29 08:06:27;;;;;;;9.23;3.28;;;11.80;71.20;;;;;;5004323;28;20057;-67
2021/03/29 08:08:54;;;;;;;11.00;3.28;;;11.90;70.30;;;;;;5005716;28;20375;-68
2021/03/29 08:11:20;;;;;;;12.65;3.53;;;12.10;71.50;;;;;;5003939;28;20029;-66
2021/03/29 08:13:53;;;;;;;9.90;3.08;;;12.20;70.10;;;;;;5010119;28;20045;-68
2021/03/29 08:16:22;;;;;;;9.48;2.92;;;12.30;69.10;;;;;;5007154;28;20516;-67
2021/03/29 08:19:06;;;;;;;10.90;3.63;;;12.30;69.70;;;;;;5009796;28;20471;-66
2021/03/29 08:22:08;;;;;;;13.50;2.83;;;12.20;68.40;;;;;;5002625;28;20029;-66
2021/03/29 08:24:46;;;;;;;13.13;3.03;;;12.30;69.20;;;;;;5006186;28;20033;-66
2021/03/29 08:27:15;;;;;;;11.27;3.08;;;12.30;68.80;;;;;;5006443;28;20037;-66
2021/03/29 08:29:42;;;;;;;9.70;3.05;;;12.30;68.30;;;;;;5007989;28;20134;-66
2021/03/29 08:32:31;;;;;;;8.02;2.60;;;12.50;68.80;;;;;;5008159;28;20057;-66
2021/03/29 08:35:01;;;;;;;9.23;3.20;;;12.50;68.90;;;;;;5008772;28;20021;-67
2021/03/29 08:37:34;;;;;;;5.68;2.72;;;12.50;68.80;;;;;;4999670;28;20081;-66
2021/03/29 08:40:06;;;;;;;11.85;3.55;;;12.60;67.50;;;;;;5005196;28;20030;-66
2021/03/29 08:42:33;;;;;;;12.02;3.13;;;12.60;68.00;;;;;;5007924;28;20120;-66
2021/03/29 08:45:05;;;;;;;8.18;3.00;;;12.60;69.10;;;;;;5008096;28;20494;-67
2021/03/29 08:47:31;;;;;;;8.88;3.05;;;12.60;69.00;;;;;;5008459;28;20029;-66
2021/03/29 08:49:59;;;;;;;9.77;3.58;;;12.60;68.50;;;;;;5003541;28;20033;-67
2021/03/29 08:52:37;;;;;;;12.15;3.38;;;12.60;67.90;;;;;;5009498;28;20048;-66
2021/03/29 08:55:03;;;;;;;11.85;3.05;;;12.60;68.40;;;;;;5008288;28;20491;-67
2021/03/29 08:57:31;;;;;;;9.25;3.25;;;12.70;69.20;;;;;;5007147;28;20099;-66
2021/03/29 09:00:03;;;;;;;9.75;3.50;;;12.80;68.80;;;;;;5007118;28;20041;-67
2021/03/29 09:02:29;;;;;;;10.35;3.05;;;12.80;68.20;;;;;;5004953;28;20041;-67
2021/03/29 09:05:00;;;;;;;7.40;3.03;;;12.90;67.60;;;;;;5009898;28;20033;-67
2021/03/29 09:07:30;;;;;;;6.60;2.83;;;13.00;67.00;;;;;;5007924;28;20374;-68
2021/03/29 09:09:57;;;;;;;10.75;3.40;;;13.10;67.30;;;;;;5009847;28;20248;-67
2021/03/29 09:12:32;;;;;;;11.00;3.00;;;13.10;67.20;;;;;;5011766;28;20116;-67
2021/03/29 09:14:59;;;;;;;7.30;2.88;;;13.30;67.60;;;;;;5006997;28;20532;-67
2021/03/29 09:17:32;;;;;;;8.95;3.40;;;13.30;66.80;;;;;;5009857;28;20034;-67
2021/03/29 09:19:58;;;;;;;8.15;2.90;;;13.40;65.80;;;;;;5005643;28;20021;-67
2021/03/29 09:22:32;;;;;;;10.35;3.55;;;13.60;65.90;;;;;;5006573;28;20271;-67
2021/03/29 09:24:58;;;;;;;10.70;3.20;;;13.70;66.20;;;;;;5007383;28;20099;-68
2021/03/29 09:27:37;;;;;;;9.77;3.30;;;13.90;67.10;;;;;;5009288;28;20038;-68
2021/03/29 09:30:09;;;;;;;9.60;3.45;;;14.40;64.90;;;;;;5006284;28;20037;-67
2021/03/29 09:32:37;;;;;;;10.48;3.20;;;14.50;64.50;;;;;;5007527;28;20030;-67
2021/03/29 09:35:04;;;;;;;8.93;2.95;;;14.40;64.20;;;;;;5002003;28;20034;-67
2021/03/29 09:37:30;;;;;;;13.32;3.17;;;14.30;64.30;;;;;;5010130;28;20402;-67
2021/03/29 09:40:00;;;;;;;7.75;2.63;;;14.50;64.20;;;;;;5007829;28;20035;-69
2021/03/29 09:42:45;;;;;;;6.63;2.53;;;14.50;63.70;;;;;;5008262;28;20022;-67
2021/03/29 09:45:27;;;;;;;10.80;2.67;;;14.80;63.40;;;;;;5010733;28;20026;-67
2021/03/29 09:48:00;;;;;;;9.10;2.88;;;14.80;62.90;;;;;;5008920;28;20033;-68
2021/03/29 09:50:35;;;;;;;11.32;3.17;;;14.90;63.20;;;;;;5009278;28;20569;-68
2021/03/29 09:53:18;;;;;;;6.22;2.85;;;15.00;61.50;;;;;;5000736;28;20057;-67
2021/03/29 09:55:50;;;;;;;8.68;3.15;;;15.10;62.20;;;;;;5006023;28;20030;-68
2021/03/29 09:58:30;;;;;;;10.70;2.95;;;15.00;62.50;;;;;;5009698;28;20486;-67
2021/03/29 10:00:58;;;;;;;7.47;2.60;;;15.30;61.90;;;;;;5010847;28;20034;-67
2021/03/29 10:03:25;;;;;;;11.38;2.75;;;15.50;61.60;;;;;;5006287;28;20389;-67
2021/03/29 10:05:53;;;;;;;8.25;2.70;;;15.50;60.90;;;;;;5004447;28;20034;-68
2021/03/29 10:08:25;;;;;;;5.88;2.75;;;15.70;61.10;;;;;;5008103;28;20030;-67
2021/03/29 10:11:03;;;;;;;8.27;2.67;;;15.80;59.10;;;;;;5006450;28;20038;-67
2021/03/29 10:13:35;;;;;;;9.13;3.35;;;15.70;59.70;;;;;;5004053;28;20022;-68
2021/03/29 10:16:19;;;;;;;11.10;2.97;;;15.60;60.20;;;;;;5002949;28;20033;-68
2021/03/29 10:18:46;;;;;;;6.35;2.92;;;15.60;60.80;;;;;;5002207;28;20025;-67
2021/03/29 10:21:12;;;;;;;8.20;3.10;;;15.80;60.40;;;;;;5007740;28;20281;-68
2021/03/29 10:23:41;;;;;;;7.40;2.85;;;15.90;59.70;;;;;;5009600;28;20053;-68
2021/03/29 10:26:19;;;;;;;7.47;2.90;;;16.30;60.80;;;;;;4992704;28;20033;-68
2021/03/29 10:29:11;;;;;;;9.77;3.05;;;16.30;59.70;;;;;;5004250;28;20042;-68
2021/03/29 10:31:37;;;;;;;6.35;2.90;;;16.30;60.20;;;;;;5009378;28;20034;-68
2021/03/29 10:34:03;;;;;;;9.75;3.20;;;16.50;60.60;;;;;;5013335;28;20029;-68
2021/03/29 10:36:30;;;;;;;10.07;3.38;;;16.50;59.10;;;;;;5004128;28;20113;-67
2021/03/29 10:38:57;;;;;;;6.88;3.03;;;16.70;59.10;;;;;;4995001;28;20029;-67
2021/03/29 10:41:24;;;;;;;12.07;3.53;;;16.60;59.70;;;;;;5004102;28;20022;-68
2021/03/29 10:43:50;;;;;;;8.15;3.42;;;16.50;59.20;;;;;;4998187;28;20034;-67
2021/03/29 10:46:16;;;;;;;7.15;3.08;;;16.40;58.90;;;;;;5006126;28;20022;-68
2021/03/29 10:48:42;;;;;;;11.02;3.00;;;16.50;58.00;;;;;;5003066;28;20030;-68
2021/03/29 10:51:08;;;;;;;8.15;3.00;;;16.60;59.20;;;;;;4996235;28;20037;-67
2021/03/29 10:53:36;;;;;;;9.18;3.28;;;16.80;59.20;;;;;;5007536;28;20018;-67
2021/03/29 10:56:02;;;;;;;6.40;2.90;;;16.90;57.90;;;;;;5006699;28;20033;-67
2021/03/29 10:58:28;;;;;;;10.65;3.30;;;17.10;58.40;;;;;;5001292;28;20022;-68
2021/03/29 11:00:54;;;;;;;7.53;2.90;;;17.10;58.50;;;;;;4999775;28;20060;-68
2021/03/29 11:03:19;;;;;;;8.23;3.13;;;17.10;58.80;;;;;;5023831;28;20124;-68
2021/03/29 11:05:45;;;;;;;6.38;2.60;;;17.00;57.70;;;;;;5008840;28;20486;-68
2021/03/29 11:08:11;;;;;;;9.00;3.22;;;16.70;59.30;;;;;;5006529;28;20490;-68
2021/03/29 11:10:37;;;;;;;6.32;2.78;;;16.60;59.50;;;;;;5000821;28;20576;-68
2021/03/29 11:13:03;;;;;;;5.88;2.80;;;16.70;59.70;;;;;;5005578;28;20371;-68
2021/03/29 11:15:31;;;;;;;7.85;2.45;;;17.00;60.10;;;;;;5007152;28;20663;-68
2021/03/29 11:17:57;;;;;;;6.80;2.90;;;17.40;57.90;;;;;;5006979;28;20022;-69
2021/03/29 11:20:23;;;;;;;9.57;2.78;;;17.30;57.90;;;;;;5001677;28;20032;-68
2021/03/29 11:22:48;;;;;;;9.43;2.70;;;17.30;58.20;;;;;;5005849;28;20184;-68
2021/03/29 11:25:14;;;;;;;8.35;3.25;;;17.60;59.60;;;;;;5005951;28;20041;-68
2021/03/29 11:27:41;;;;;;;7.60;2.83;;;18.00;56.80;;;;;;5006328;28;20121;-67
2021/03/29 11:30:13;;;;;;;6.85;2.88;;;18.20;57.40;;;;;;5002968;28;20026;-68
2021/03/29 11:32:43;;;;;;;7.80;2.55;;;18.50;57.00;;;;;;5002507;28;20016;-68
2021/03/29 11:35:10;;;;;;;7.03;2.65;;;18.00;56.10;;;;;;5002486;28;20034;-68
2021/03/29 11:37:36;;;;;;;5.90;2.85;;;17.70;57.90;;;;;;5004138;28;20021;-68
2021/03/29 11:40:03;;;;;;;9.80;3.15;;;17.90;57.30;;;;;;5004882;28;21784;-69
2021/03/29 11:42:28;;;;;;;6.28;3.05;;;18.00;57.10;;;;;;5010567;28;20029;-68
2021/03/29 11:44:54;;;;;;;8.10;2.78;;;18.00;57.10;;;;;;5004346;28;20030;-68
2021/03/29 11:47:21;;;;;;;9.63;2.97;;;18.10;56.80;;;;;;5006513;28;20026;-68
2021/03/29 11:49:47;;;;;;;7.93;2.75;;;18.40;57.20;;;;;;5000217;28;20052;-67
2021/03/29 11:52:13;;;;;;;5.57;2.40;;;18.00;56.70;;;;;;5007269;28;21363;-69
2021/03/29 11:54:38;;;;;;;8.63;2.92;;;18.40;56.70;;;;;;5004411;28;20030;-67
2021/03/29 11:57:04;;;;;;;5.75;2.50;;;18.10;56.70;;;;;;5005548;28;20036;-68
2021/03/29 11:59:30;;;;;;;7.63;2.83;;;18.50;55.80;;;;;;5007517;28;20033;-67
2021/03/29 12:02:00;;;;;;;11.30;3.60;;;18.70;56.70;;;;;;4991825;28;20033;-68
2021/03/29 12:04:34;;;;;;;9.20;3.05;;;18.90;54.50;;;;;;5002986;28;20033;-68
2021/03/29 12:07:18;;;;;;;6.07;2.65;;;19.10;54.40;;;;;;5001573;28;20046;-68
2021/03/29 12:11:46;;;;;;;8.70;2.75;;;19.10;55.40;;;;;;5002363;28;20049;-68
2021/03/29 12:12:35;;;;;;;6.28;2.70;;;19.00;54.50;;;;;;5005180;28;20390;-69
2021/03/29 12:15:01;;;;;;;5.72;2.85;;;18.80;55.10;;;;;;5005488;28;20383;-67
2021/03/29 12:17:27;;;;;;;7.80;2.85;;;18.90;55.20;;;;;;5004336;28;20038;-69
2021/03/29 12:19:52;;;;;;;7.15;3.05;;;19.40;54.30;;;;;;4999203;28;20474;-67
2021/03/29 12:22:26;;;;;;;10.32;3.08;;;19.10;54.00;;;;;;5002835;28;20077;-68
2021/03/29 12:24:55;;;;;;;6.60;3.13;;;19.20;53.50;;;;;;5004769;28;20026;-67
2021/03/29 12:27:21;;;;;;;7.47;3.15;;;19.00;54.80;;;;;;5002255;28;20036;-67
2021/03/29 12:29:48;;;;;;;8.02;3.25;;;19.30;53.20;;;;;;5005740;28;20398;-68
2021/03/29 12:32:17;;;;;;;8.43;3.17;;;19.10;53.70;;;;;;5011963;28;20392;-68
2021/03/29 12:34:55;;;;;;;7.15;2.85;;;19.40;53.60;;;;;;5004975;28;20038;-68
2021/03/29 12:37:23;;;;;;;6.38;2.65;;;19.20;54.10;;;;;;5005170;28;20025;-68
2021/03/29 12:40:03;;;;;;;7.85;2.85;;;19.70;53.60;;;;;;5003650;28;20033;-68
2021/03/29 12:42:31;;;;;;;6.68;2.90;;;20.10;53.40;;;;;;5004972;28;20032;-68
2021/03/29 12:44:57;;;;;;;6.18;2.83;;;19.60;54.20;;;;;;4998053;28;20080;-68
2021/03/29 12:47:27;;;;;;;6.82;2.78;;;20.00;53.50;;;;;;5003572;28;20030;-70
2021/03/29 12:49:53;;;;;;;6.55;2.97;;;20.00;52.90;;;;;;5003140;28;20372;-70
2021/03/29 12:52:19;;;;;;;5.57;2.90;;;19.50;53.60;;;;;;5003052;28;20027;-68
2021/03/29 12:54:45;;;;;;;5.63;2.97;;;19.80;52.90;;;;;;5005653;28;20074;-69
2021/03/29 12:57:11;;;;;;;9.35;2.97;;;20.20;52.90;;;;;;5002265;28;20026;-68
2021/03/29 12:59:37;;;;;;;9.73;3.40;;;20.40;52.30;;;;;;5011897;28;20026;-69
2021/03/29 13:02:03;;;;;;;7.85;3.40;;;20.40;52.90;;;;;;5007301;28;20545;-68